createdAt,value
2019-01-09T00:01:35.700Z,80.26
2019-01-09T00:04:04.293Z,79.29
2019-01-09T00:06:32.789Z,80.89
2019-01-09T00:09:01.350Z,81.74
2019-01-09T00:11:29.876Z,82.02
2019-01-09T00:13:58.304Z,83.12
2019-01-09T00:16:26.814Z,83.13
2019-01-09T00:18:55.362Z,84.03
2019-01-09T00:21:23.910Z,84.22
2019-01-09T00:23:52.474Z,84.47
2019-01-09T00:26:20.973Z,83.18
2019-01-09T00:28:49.463Z,82.27
2019-01-09T00:31:18.024Z,82.21
2019-01-09T00:33:46.641Z,83.20
2019-01-09T00:36:15.163Z,84.50
2019-01-09T00:38:43.711Z,84.83
2019-01-09T00:41:12.301Z,84.80
2019-01-09T00:43:40.865Z,85.40
2019-01-09T00:46:09.362Z,84.84
2019-01-09T00:48:37.921Z,84.16
2019-01-09T00:51:06.491Z,82.81
2019-01-09T00:53:35.049Z,81.41
2019-01-09T00:56:03.635Z,81.30
2019-01-09T00:58:32.191Z,82.27
2019-01-09T01:01:00.680Z,82.14
2019-01-09T01:03:37.995Z,83.89
2019-01-09T01:06:25.518Z,83.84
2019-01-09T01:09:11.256Z,83.21
2019-01-09T01:11:57.422Z,82.67
2019-01-09T01:14:40.845Z,80.88
2019-01-09T01:17:24.155Z,80.52
2019-01-09T01:20:11.138Z,80.36
2019-01-09T01:22:51.301Z,80.39
2019-01-09T01:25:25.487Z,81.04
2019-01-09T01:28:05.694Z,81.85
2019-01-09T01:30:42.856Z,81.59
2019-01-09T01:33:17.032Z,81.71
2019-01-09T01:36:09.540Z,82.30
2019-01-09T01:38:56.081Z,83.96
2019-01-09T01:41:39.323Z,83.33
2019-01-09T01:44:28.207Z,84.22
2019-01-09T01:47:08.625Z,85.13
2019-01-09T01:49:54.957Z,85.85
2019-01-09T01:52:41.092Z,85.73
2019-01-09T01:55:18.608Z,87.12
2019-01-09T01:57:58.978Z,87.13
2019-01-09T02:00:32.957Z,86.20
2019-01-09T02:03:37.329Z,87.50
2019-01-09T02:06:14.614Z,88.01
2019-01-09T02:09:08.274Z,88.83
2019-01-09T02:11:51.495Z,88.93
2019-01-09T02:14:31.922Z,89.20
2019-01-09T02:17:06.027Z,89.90
2019-01-09T02:19:37.531Z,89.13
2019-01-09T02:22:14.631Z,89.33
2019-01-09T02:24:48.749Z,90.29
2019-01-09T02:27:26.028Z,90.78
2019-01-09T02:30:03.424Z,90.19
2019-01-09T02:32:32.309Z,90.21
2019-01-09T02:35:00.856Z,89.70
2019-01-09T02:37:29.463Z,87.41
2019-01-09T02:39:57.960Z,87.42
2019-01-09T02:42:26.382Z,86.84
2019-01-09T02:44:54.976Z,86.49
2019-01-09T02:47:23.404Z,88.03
2019-01-09T02:49:51.821Z,89.17
2019-01-09T02:52:20.293Z,89.36
2019-01-09T02:54:48.851Z,89.93
2019-01-09T02:57:17.335Z,89.75
2019-01-09T02:59:45.871Z,89.25
2019-01-09T03:02:14.291Z,88.21
2019-01-09T03:04:42.760Z,89.55
2019-01-09T03:07:11.278Z,89.62
2019-01-09T03:09:39.695Z,89.28
2019-01-09T03:12:08.190Z,88.30
2019-01-09T03:14:36.638Z,87.94
2019-01-09T03:17:05.133Z,88.49
2019-01-09T03:19:33.692Z,89.33
2019-01-09T03:22:02.224Z,89.50
2019-01-09T03:24:30.717Z,88.09
2019-01-09T03:26:59.135Z,88.28
2019-01-09T03:29:27.752Z,90.21
2019-01-09T03:31:56.195Z,90.21
2019-01-09T03:34:24.660Z,91.01
2019-01-09T03:36:53.128Z,91.72
2019-01-09T03:39:21.622Z,91.76
2019-01-09T03:41:50.186Z,91.61
2019-01-09T03:44:18.705Z,90.92
2019-01-09T03:46:47.194Z,90.94
2019-01-09T03:49:15.617Z,90.41
2019-01-09T03:51:44.072Z,90.57
2019-01-09T03:54:12.496Z,91.01
2019-01-09T03:56:40.923Z,91.04
2019-01-09T03:59:09.519Z,91.07
2019-01-09T04:01:37.973Z,91.01
2019-01-09T04:04:06.396Z,89.71
2019-01-09T04:06:41.776Z,89.01
2019-01-09T04:09:05.708Z,89.24
2019-01-09T04:11:34.198Z,89.26
2019-01-09T04:14:02.803Z,88.56
2019-01-09T04:16:31.393Z,87.44
2019-01-09T04:18:59.817Z,87.95
2019-01-09T04:21:28.340Z,87.83
2019-01-09T04:23:56.767Z,86.30
2019-01-09T04:26:25.276Z,84.27
2019-01-09T04:28:53.778Z,83.73
2019-01-09T04:31:22.203Z,84.24
2019-01-09T04:33:50.634Z,84.29
2019-01-09T04:36:19.128Z,84.19
2019-01-09T04:38:47.587Z,83.92
2019-01-09T04:41:16.035Z,84.40
2019-01-09T04:43:44.605Z,84.57
2019-01-09T04:46:13.033Z,84.99
2019-01-09T04:48:41.457Z,85.61
2019-01-09T04:51:09.906Z,85.85
2019-01-09T04:53:38.332Z,85.44
2019-01-09T04:56:06.837Z,86.15
2019-01-09T04:58:35.363Z,87.33
2019-01-09T05:01:03.850Z,88.13
2019-01-09T05:03:32.297Z,88.80
2019-01-09T05:06:00.863Z,88.60
2019-01-09T05:08:29.289Z,88.77
2019-01-09T05:10:57.725Z,88.67
2019-01-09T05:13:26.172Z,88.25
2019-01-09T05:15:54.590Z,87.37
2019-01-09T05:18:23.012Z,87.24
2019-01-09T05:20:51.538Z,87.85
2019-01-09T05:23:19.962Z,88.26
2019-01-09T05:25:48.373Z,89.13
2019-01-09T05:28:16.833Z,89.24
2019-01-09T05:30:45.270Z,89.66
2019-01-09T05:33:13.687Z,89.99
2019-01-09T05:35:42.146Z,89.64
2019-01-09T05:38:10.562Z,91.11
2019-01-09T05:40:38.995Z,89.83
2019-01-09T05:43:07.524Z,89.54
2019-01-09T05:45:35.948Z,88.91
2019-01-09T05:48:04.451Z,88.69
2019-01-09T05:50:32.907Z,88.95
2019-01-09T05:53:01.328Z,89.07
2019-01-09T05:55:29.748Z,88.72
2019-01-09T05:57:58.309Z,88.76
2019-01-09T06:00:26.728Z,88.46
2019-01-09T06:02:55.148Z,89.10
2019-01-09T06:05:23.607Z,89.46
2019-01-09T06:07:52.031Z,89.41
2019-01-09T06:10:20.451Z,89.23
2019-01-09T06:12:48.911Z,89.08
2019-01-09T06:15:17.335Z,89.05
2019-01-09T06:17:45.758Z,89.30
2019-01-09T06:20:14.298Z,89.77
2019-01-09T06:22:42.719Z,88.44
2019-01-09T06:25:11.141Z,88.90
2019-01-09T06:27:39.590Z,88.73
2019-01-09T06:30:09.995Z,89.92
2019-01-09T06:32:38.447Z,88.55
2019-01-09T06:35:07.031Z,88.23
2019-01-09T06:37:35.452Z,87.83
2019-01-09T06:40:04.513Z,87.50
2019-01-09T06:42:32.960Z,87.24
2019-01-09T06:45:01.386Z,87.02
2019-01-09T06:47:29.816Z,86.65
2019-01-09T06:49:58.277Z,86.30
2019-01-09T06:52:26.699Z,86.83
2019-01-09T06:54:55.245Z,87.43
2019-01-09T06:57:23.692Z,87.73
2019-01-09T06:59:52.116Z,88.15
2019-01-09T07:02:20.622Z,88.22
2019-01-09T07:04:49.077Z,87.84
2019-01-09T07:07:17.500Z,88.01
2019-01-09T07:09:45.928Z,88.22
2019-01-09T07:12:14.379Z,88.78
2019-01-09T07:14:42.804Z,89.32
2019-01-09T07:17:11.232Z,88.35
2019-01-09T07:19:39.960Z,88.06
2019-01-09T07:22:08.377Z,87.44
2019-01-09T07:24:36.803Z,87.01
2019-01-09T07:27:06.931Z,86.91
2019-01-09T07:29:35.352Z,86.59
2019-01-09T07:32:03.845Z,85.87
2019-01-09T07:34:32.377Z,85.97
2019-01-09T07:37:00.824Z,85.92
2019-01-09T07:39:29.220Z,85.29
2019-01-09T07:41:57.889Z,85.53
2019-01-09T07:44:26.312Z,84.93
2019-01-09T07:46:54.738Z,85.17
2019-01-09T07:49:23.200Z,85.38
2019-01-09T07:51:51.623Z,84.99
2019-01-09T07:54:20.043Z,85.30
2019-01-09T07:56:48.496Z,85.09
2019-01-09T07:59:16.920Z,85.54
2019-01-09T08:01:45.412Z,84.83
2019-01-09T08:04:13.938Z,84.57
2019-01-09T08:06:42.450Z,84.31
2019-01-09T08:09:10.871Z,84.16
2019-01-09T08:11:39.329Z,83.94
2019-01-09T08:14:07.775Z,84.17
2019-01-09T08:16:36.192Z,84.34
2019-01-09T08:19:04.816Z,84.44
2019-01-09T08:21:33.226Z,84.63
2019-01-09T08:24:01.717Z,84.83
2019-01-09T08:26:30.550Z,84.32
2019-01-09T08:28:58.911Z,84.04
2019-01-09T08:31:27.383Z,83.96
2019-01-09T08:33:55.878Z,83.90
2019-01-09T08:36:24.297Z,83.42
2019-01-09T08:38:52.719Z,82.61
2019-01-09T08:41:21.461Z,82.47
2019-01-09T08:43:49.880Z,83.24
2019-01-09T08:46:18.294Z,81.90
2019-01-09T08:48:46.743Z,82.22
2019-01-09T08:51:15.168Z,82.25
2019-01-09T08:53:43.659Z,82.38
2019-01-09T08:56:12.189Z,82.61
2019-01-09T08:58:40.675Z,83.12
2019-01-09T09:01:09.099Z,82.73
2019-01-09T09:03:37.655Z,82.99
2019-01-09T09:06:06.148Z,83.38
2019-01-09T09:08:35.009Z,83.46
2019-01-09T09:11:03.459Z,83.17
2019-01-09T09:13:36.584Z,82.73
2019-01-09T09:16:06.143Z,82.54
2019-01-09T09:18:34.675Z,82.25
2019-01-09T09:21:03.167Z,83.06
2019-01-09T09:23:31.588Z,83.07
2019-01-09T09:26:00.114Z,82.27
2019-01-09T09:28:28.536Z,82.52
2019-01-09T09:30:57.037Z,83.02
2019-01-09T09:33:25.482Z,83.29
2019-01-09T09:35:53.904Z,82.44
2019-01-09T09:38:22.463Z,81.58
2019-01-09T09:40:51.004Z,81.87
2019-01-09T09:43:19.428Z,81.70
2019-01-09T09:45:47.847Z,81.98
2019-01-09T09:48:16.306Z,82.54
2019-01-09T09:50:44.723Z,82.46
2019-01-09T09:53:13.149Z,82.00
2019-01-09T09:55:41.604Z,82.39
2019-01-09T09:58:10.096Z,82.49
2019-01-09T10:00:38.520Z,82.27
2019-01-09T10:03:06.972Z,82.47
2019-01-09T10:05:35.421Z,82.58
2019-01-09T10:08:03.915Z,83.11
2019-01-09T10:10:32.375Z,82.98
2019-01-09T10:13:00.799Z,82.53
2019-01-09T10:15:29.222Z,82.75
2019-01-09T10:17:57.820Z,83.44
2019-01-09T10:20:26.311Z,83.15
2019-01-09T10:22:54.739Z,83.85
2019-01-09T10:25:23.371Z,84.70
2019-01-09T10:27:51.843Z,84.36
2019-01-09T10:30:22.012Z,84.38
2019-01-09T10:32:50.506Z,85.62
2019-01-09T10:35:19.171Z,87.13
2019-01-09T10:37:47.658Z,86.82
2019-01-09T10:40:18.452Z,87.12
2019-01-09T10:42:47.412Z,86.80
2019-01-09T10:45:18.384Z,85.72
2019-01-09T10:47:46.978Z,85.16
2019-01-09T10:50:16.641Z,84.18
2019-01-09T10:52:45.131Z,82.92
2019-01-09T10:55:16.202Z,82.46
2019-01-09T10:57:44.696Z,82.21
2019-01-09T11:00:16.227Z,81.78
2019-01-09T11:02:44.755Z,80.17
2019-01-09T11:05:14.215Z,81.29
2019-01-09T11:07:42.800Z,80.40
2019-01-09T11:10:14.325Z,80.32
2019-01-09T11:12:42.760Z,78.46
2019-01-09T11:15:12.123Z,79.61
2019-01-09T11:17:40.626Z,78.51
2019-01-09T11:20:17.804Z,77.47
2019-01-09T11:22:46.400Z,76.98
2019-01-09T11:25:20.331Z,77.48
2019-01-09T11:27:48.897Z,76.98
2019-01-09T11:30:19.899Z,74.05
2019-01-09T11:32:48.415Z,73.44
2019-01-09T11:35:18.868Z,71.94
2019-01-09T11:37:47.351Z,69.68
2019-01-09T11:40:17.816Z,70.94
2019-01-09T11:42:46.310Z,70.83
2019-01-09T11:45:16.991Z,70.06
2019-01-09T11:47:45.551Z,68.40
2019-01-09T11:50:15.213Z,68.74
2019-01-09T11:52:43.818Z,68.49
2019-01-09T11:55:13.575Z,69.15
2019-01-09T11:57:42.076Z,69.41
2019-01-09T12:00:16.509Z,69.89
2019-01-09T12:02:45.002Z,69.99
2019-01-09T12:05:13.492Z,68.71
2019-01-09T12:07:42.115Z,69.71
2019-01-09T12:10:13.574Z,69.56
2019-01-09T12:12:42.064Z,68.50
2019-01-09T12:15:12.652Z,67.80
2019-01-09T12:17:41.089Z,68.10
2019-01-09T12:20:12.284Z,64.20
2019-01-09T12:22:40.743Z,65.69
2019-01-09T12:25:10.312Z,64.56
2019-01-09T12:27:38.734Z,64.64
2019-01-09T12:30:10.315Z,64.90
2019-01-09T12:32:38.738Z,64.42
2019-01-09T12:35:07.531Z,64.92
2019-01-09T12:37:35.984Z,64.13
2019-01-09T12:40:06.847Z,64.65
2019-01-09T12:42:35.263Z,64.95
2019-01-09T12:45:05.905Z,65.07
2019-01-09T12:47:34.327Z,65.03
2019-01-09T12:50:02.819Z,65.98
2019-01-09T12:52:31.266Z,65.39
2019-01-09T12:54:59.688Z,65.69
2019-01-09T12:57:28.108Z,64.99
2019-01-09T12:59:56.654Z,64.81
2019-01-09T13:02:25.144Z,64.34
2019-01-09T13:04:53.564Z,63.89
2019-01-09T13:07:22.097Z,64.95
2019-01-09T13:09:50.518Z,64.72
2019-01-09T13:12:18.939Z,66.41
2019-01-09T13:14:47.388Z,66.60
2019-01-09T13:17:15.817Z,66.83
2019-01-09T13:19:44.239Z,67.04
2019-01-09T13:22:12.791Z,67.74
2019-01-09T13:24:41.199Z,67.83
2019-01-09T13:27:09.623Z,66.28
2019-01-09T13:29:38.071Z,65.94
2019-01-09T13:32:06.565Z,64.26
2019-01-09T13:34:35.130Z,64.98
2019-01-09T13:37:03.651Z,63.38
2019-01-09T13:39:32.054Z,64.23
2019-01-09T13:42:00.559Z,63.69
2019-01-09T13:44:29.039Z,63.45
2019-01-09T13:46:57.599Z,63.86
2019-01-09T13:49:26.896Z,63.38
2019-01-09T13:51:55.496Z,63.96
2019-01-09T13:54:23.931Z,64.35
2019-01-09T13:56:52.491Z,64.74
2019-01-09T13:59:20.967Z,65.58
2019-01-09T14:01:49.478Z,65.87
2019-01-09T14:04:17.926Z,65.70
2019-01-09T14:06:46.399Z,65.96
2019-01-09T14:09:14.867Z,66.19
2019-01-09T14:11:43.355Z,66.01
2019-01-09T14:14:11.952Z,66.57
2019-01-09T14:16:40.379Z,66.36
2019-01-09T14:19:08.795Z,66.40
2019-01-09T14:21:37.285Z,66.78
2019-01-09T14:24:05.844Z,66.80
2019-01-09T14:26:34.406Z,67.18
2019-01-09T14:29:02.924Z,67.83
2019-01-09T14:31:31.358Z,67.50
2019-01-09T14:33:59.766Z,68.23
2019-01-09T14:36:28.290Z,68.60
2019-01-09T14:38:56.716Z,69.43
2019-01-09T14:41:25.144Z,70.12
2019-01-09T14:43:53.595Z,70.90
2019-01-09T14:46:22.048Z,71.40
2019-01-09T14:48:50.539Z,71.87
2019-01-09T14:51:19.155Z,71.68
2019-01-09T14:53:47.596Z,72.26
2019-01-09T14:56:16.088Z,71.84
2019-01-09T14:58:44.539Z,70.76
2019-01-09T15:01:12.988Z,70.39
2019-01-09T15:03:41.484Z,70.14
2019-01-09T15:06:10.063Z,70.03
2019-01-09T15:08:38.446Z,70.58
2019-01-09T15:11:06.940Z,70.51
2019-01-09T15:13:35.455Z,70.71
2019-01-09T15:16:03.952Z,68.94
2019-01-09T15:18:32.400Z,69.22
2019-01-09T15:21:00.925Z,69.51
2019-01-09T15:23:29.353Z,70.18
2019-01-09T15:25:57.843Z,69.54
2019-01-09T15:28:26.367Z,68.41
2019-01-09T15:30:54.790Z,68.10
2019-01-09T15:33:23.282Z,67.59
2019-01-09T15:35:51.962Z,67.51
2019-01-09T15:38:20.458Z,68.11
2019-01-09T15:40:48.948Z,67.69
2019-01-09T15:43:17.432Z,67.15
2019-01-09T15:45:45.860Z,66.04
2019-01-09T15:48:14.279Z,65.99
2019-01-09T15:50:42.767Z,66.02
2019-01-09T15:53:11.268Z,65.62
2019-01-09T15:55:39.687Z,66.01
2019-01-09T15:58:08.220Z,66.11
2019-01-09T16:00:39.573Z,66.17
2019-01-09T16:03:08.136Z,65.85
2019-01-09T16:05:36.875Z,66.07
2019-01-09T16:08:05.936Z,65.97
2019-01-09T16:10:34.351Z,65.77
2019-01-09T16:13:02.951Z,65.72
2019-01-09T16:15:31.520Z,65.91
2019-01-09T16:18:00.345Z,66.47
2019-01-09T16:20:28.863Z,65.61
2019-01-09T16:22:57.297Z,66.45
2019-01-09T16:25:25.947Z,66.48
2019-01-09T16:27:54.433Z,67.21
2019-01-09T16:30:35.263Z,67.18
2019-01-09T16:33:03.892Z,66.22
2019-01-09T16:35:34.857Z,66.03
2019-01-09T16:38:03.418Z,66.80
2019-01-09T16:40:31.934Z,66.57
2019-01-09T16:43:00.355Z,66.59
2019-01-09T16:45:28.846Z,67.35
2019-01-09T16:47:57.295Z,67.37
2019-01-09T16:50:25.850Z,67.95
2019-01-09T16:52:54.268Z,67.76
2019-01-09T16:55:22.722Z,67.31
2019-01-09T16:57:51.143Z,67.24
2019-01-09T17:00:25.841Z,68.35
2019-01-09T17:02:54.454Z,69.41
2019-01-09T17:05:23.010Z,70.47
2019-01-09T17:07:51.849Z,70.50
2019-01-09T17:10:20.573Z,70.53
2019-01-09T17:12:48.997Z,70.57
2019-01-09T17:15:18.770Z,70.61
2019-01-09T17:17:47.563Z,70.29
2019-01-09T17:20:19.143Z,69.61
2019-01-09T17:22:47.759Z,69.73
2019-01-09T17:25:16.433Z,69.58
2019-01-09T17:27:44.932Z,69.33
2019-01-09T17:30:25.638Z,70.12
2019-01-09T17:32:54.202Z,70.15
2019-01-09T17:35:22.687Z,69.69
2019-01-09T17:37:51.306Z,70.68
2019-01-09T17:40:21.681Z,70.79
2019-01-09T17:42:50.422Z,70.71
2019-01-09T17:45:19.135Z,71.32
2019-01-09T17:47:47.632Z,71.27
2019-01-09T17:50:22.168Z,71.40
2019-01-09T17:52:50.699Z,72.02
2019-01-09T17:55:19.192Z,71.85
2019-01-09T17:57:47.612Z,71.99
2019-01-09T18:00:21.888Z,72.43
2019-01-09T18:02:50.443Z,73.37
2019-01-09T18:05:18.948Z,73.99
2019-01-09T18:07:47.569Z,73.84
2019-01-09T18:10:18.087Z,75.30
2019-01-09T18:12:46.762Z,75.29
2019-01-09T18:15:17.696Z,75.85
2019-01-09T18:17:46.111Z,75.64
2019-01-09T18:20:16.769Z,75.58
2019-01-09T18:22:45.446Z,75.88
2019-01-09T18:25:22.465Z,74.93
2019-01-09T18:27:50.982Z,75.26
2019-01-09T18:30:38.882Z,75.24
2019-01-09T18:33:10.486Z,74.67
2019-01-09T18:35:42.030Z,73.75
2019-01-09T18:38:37.563Z,73.49
2019-01-09T18:41:17.975Z,73.23
2019-01-09T18:43:52.172Z,73.11
2019-01-09T18:46:23.643Z,72.09
2019-01-09T18:49:04.248Z,72.40
2019-01-09T18:51:38.392Z,71.45
2019-01-09T18:54:06.884Z,72.29
2019-01-09T18:56:35.444Z,71.48
2019-01-09T18:59:04.103Z,71.03
2019-01-09T19:01:32.663Z,72.05
2019-01-09T19:04:01.184Z,72.20
2019-01-09T19:06:34.955Z,70.92
2019-01-09T19:08:59.887Z,71.18
2019-01-09T19:11:28.483Z,71.34
2019-01-09T19:13:56.903Z,71.60
2019-01-09T19:16:25.398Z,71.79
2019-01-09T19:18:54.284Z,70.90
2019-01-09T19:21:22.757Z,71.31
2019-01-09T19:23:51.181Z,70.55
2019-01-09T19:26:19.748Z,70.82
2019-01-09T19:28:48.168Z,70.68
2019-01-09T19:31:16.728Z,70.15
2019-01-09T19:33:45.259Z,70.61
2019-01-09T19:36:13.820Z,70.71
2019-01-09T19:38:42.244Z,70.69
2019-01-09T19:41:17.022Z,70.05
2019-01-09T19:43:41.172Z,70.44
2019-01-09T19:46:09.662Z,71.03
2019-01-09T19:48:38.179Z,70.60
2019-01-09T19:51:07.842Z,70.33
2019-01-09T19:53:36.332Z,70.21
2019-01-09T19:56:05.766Z,70.40
2019-01-09T19:58:34.192Z,70.54
2019-01-09T20:01:02.759Z,71.23
2019-01-09T20:03:31.289Z,71.44
2019-01-09T20:05:59.785Z,71.34
2019-01-09T20:08:28.274Z,71.71
2019-01-09T20:10:56.803Z,71.40
2019-01-09T20:13:25.300Z,70.49
2019-01-09T20:15:53.859Z,70.50
2019-01-09T20:18:22.538Z,70.93
2019-01-09T20:20:51.145Z,71.53
2019-01-09T20:23:19.637Z,70.90
2019-01-09T20:25:48.213Z,70.91
2019-01-09T20:28:16.575Z,70.88
2019-01-09T20:30:45.164Z,70.98
2019-01-09T20:33:13.692Z,71.08
2019-01-09T20:35:42.226Z,70.85
2019-01-09T20:38:10.696Z,71.59
2019-01-09T20:40:39.291Z,71.73
2019-01-09T20:43:07.729Z,72.17
2019-01-09T20:45:36.345Z,71.56
2019-01-09T20:48:04.892Z,71.61
2019-01-09T20:50:33.517Z,72.19
2019-01-09T20:53:02.043Z,72.42
2019-01-09T20:55:30.526Z,72.91
2019-01-09T20:57:59.448Z,72.94
2019-01-09T21:00:29.235Z,73.01
2019-01-09T21:02:59.655Z,73.22
2019-01-09T21:05:30.987Z,73.01
2019-01-09T21:07:59.521Z,73.48
2019-01-09T21:10:28.350Z,73.34
2019-01-09T21:12:56.787Z,73.39
2019-01-09T21:15:25.365Z,72.92
2019-01-09T21:17:54.075Z,72.70
2019-01-09T21:20:23.692Z,72.84
2019-01-09T21:22:52.252Z,73.16
2019-01-09T21:25:21.129Z,73.30
2019-01-09T21:27:49.789Z,73.78
2019-01-09T21:30:20.648Z,72.81
2019-01-09T21:32:49.167Z,73.51
2019-01-09T21:35:17.730Z,72.97
2019-01-09T21:37:46.394Z,72.50
2019-01-09T21:40:20.356Z,73.51
2019-01-09T21:42:48.951Z,73.55
2019-01-09T21:45:18.010Z,74.57
2019-01-09T21:47:46.627Z,73.28
2019-01-09T21:50:18.295Z,73.37
2019-01-09T21:52:47.156Z,73.69
2019-01-09T21:55:16.594Z,73.66
2019-01-09T21:57:45.083Z,73.26
2019-01-09T22:00:17.044Z,73.54
2019-01-09T22:02:45.640Z,73.15
2019-01-09T22:05:14.400Z,73.30
2019-01-09T22:07:43.058Z,73.64
2019-01-09T22:10:14.803Z,74.01
2019-01-09T22:12:43.483Z,74.18
2019-01-09T22:15:14.444Z,74.42
2019-01-09T22:17:43.215Z,74.17
2019-01-09T22:20:13.975Z,74.14
2019-01-09T22:22:42.636Z,74.20
2019-01-09T22:25:12.527Z,73.92
2019-01-09T22:27:41.186Z,74.13
2019-01-09T22:30:21.550Z,74.29
2019-01-09T22:32:50.314Z,74.54
2019-01-09T22:35:18.799Z,74.43
2019-01-09T22:37:47.318Z,74.54
2019-01-09T22:40:17.798Z,74.39
2019-01-09T22:42:46.521Z,74.84
2019-01-09T22:45:16.262Z,75.04
2019-01-09T22:47:44.825Z,75.47
2019-01-09T22:50:16.295Z,75.42
2019-01-09T22:52:44.895Z,76.24
2019-01-09T22:55:13.457Z,75.94
2019-01-09T22:57:41.946Z,76.11
2019-01-09T23:00:32.580Z,76.26
2019-01-09T23:03:01.575Z,76.07
2019-01-09T23:05:30.074Z,76.17
2019-01-09T23:07:58.680Z,76.18
2019-01-09T23:10:27.239Z,75.69
2019-01-09T23:12:55.666Z,75.91
2019-01-09T23:15:24.274Z,75.19
2019-01-09T23:17:52.694Z,75.62
2019-01-09T23:20:21.115Z,75.58
2019-01-09T23:22:49.632Z,75.46
2019-01-09T23:25:18.082Z,75.09
2019-01-09T23:27:46.647Z,75.32
2019-01-09T23:30:15.567Z,76.54
2019-01-09T23:32:44.059Z,76.11
2019-01-09T23:35:13.719Z,75.16
2019-01-09T23:37:42.316Z,75.62
2019-01-09T23:40:15.306Z,75.41
2019-01-09T23:42:44.184Z,75.96
2019-01-09T23:45:14.350Z,75.44
2019-01-09T23:47:43.037Z,75.63
2019-01-09T23:50:12.094Z,75.44
2019-01-09T23:52:40.770Z,75.41
2019-01-09T23:55:12.681Z,75.43
2019-01-09T23:57:41.108Z,75.08
